createdAt,value
2019-05-03T00:03:16.660Z,98.10
2019-05-03T00:08:21.729Z,98.70
2019-05-03T00:13:26.115Z,99.00
2019-05-03T00:18:30.169Z,96.60
2019-05-03T00:23:33.933Z,96.20
2019-05-03T00:28:40.001Z,97.00
2019-05-03T00:33:45.918Z,96.50
2019-05-03T00:38:52.450Z,95.60
2019-05-03T00:43:56.294Z,95.70
2019-05-03T00:49:00.018Z,95.90
2019-05-03T00:54:03.795Z,95.70
2019-05-03T00:59:07.830Z,95.30
2019-05-03T01:04:11.906Z,95.60
2019-05-03T01:09:19.753Z,95.20
2019-05-03T01:14:23.509Z,95.20
2019-05-03T01:19:27.673Z,95.60
2019-05-03T01:24:32.308Z,95.70
2019-05-03T01:29:36.610Z,96.30
2019-05-03T01:34:41.652Z,96.60
2019-05-03T01:39:45.566Z,97.20
2019-05-03T01:44:49.298Z,97.10
2019-05-03T01:50:00.086Z,97.30
2019-05-03T01:55:04.260Z,97.90
2019-05-03T02:00:12.497Z,98.20
2019-05-03T02:05:42.887Z,98.70
2019-05-03T02:10:46.904Z,98.90
2019-05-03T02:15:52.696Z,99.00
2019-05-03T02:20:56.461Z,99.20
2019-05-03T02:26:00.138Z,99.50
2019-05-03T02:31:03.946Z,99.90
2019-05-03T02:36:07.708Z,99.90
2019-05-03T02:41:13.493Z,99.90
2019-05-03T02:46:36.321Z,99.90
2019-05-03T02:51:41.138Z,99.90
2019-05-03T02:56:46.014Z,99.90
2019-05-03T03:01:50.389Z,99.90
2019-05-03T03:06:56.029Z,99.90
2019-05-03T03:12:01.752Z,99.90
2019-05-03T03:17:06.965Z,99.90
2019-05-03T03:22:11.463Z,99.90
2019-05-03T03:27:19.427Z,99.90
2019-05-03T03:32:30.371Z,99.90
2019-05-03T03:37:35.225Z,99.90
2019-05-03T03:42:40.622Z,99.90
2019-05-03T03:47:46.602Z,99.90
2019-05-03T03:52:52.164Z,99.90
2019-05-03T03:57:56.011Z,99.90
2019-05-03T04:03:00.731Z,99.90
2019-05-03T04:08:05.624Z,99.90
2019-05-03T04:13:11.706Z,99.90
2019-05-03T04:18:41.086Z,99.90
2019-05-03T04:23:45.848Z,99.90
2019-05-03T04:28:49.829Z,99.90
2019-05-03T04:33:56.106Z,99.90
2019-05-03T04:38:59.381Z,99.40
2019-05-03T04:44:06.057Z,98.20
2019-05-03T04:49:08.796Z,97.20
2019-05-03T04:54:25.254Z,95.10
2019-05-03T04:59:29.141Z,94.30
2019-05-03T05:04:35.498Z,93.70
2019-05-03T05:09:39.028Z,93.90
2019-05-03T05:14:45.493Z,93.60
2019-05-03T05:19:58.542Z,94.00
2019-05-03T05:25:04.497Z,94.30
2019-05-03T05:30:10.889Z,95.10
2019-05-03T05:35:14.668Z,96.60
2019-05-03T05:40:21.803Z,95.70
2019-05-03T05:45:25.676Z,97.20
2019-05-03T05:50:37.950Z,97.10
2019-05-03T05:55:54.970Z,96.40
2019-05-03T06:01:02.633Z,97.10
2019-05-03T06:06:08.977Z,97.10
2019-05-03T06:11:18.673Z,97.40
2019-05-03T06:16:28.267Z,96.50
2019-05-03T06:21:51.195Z,96.00
2019-05-03T06:27:00.560Z,96.20
2019-05-03T06:32:15.366Z,95.80
2019-05-03T06:37:21.900Z,94.20
2019-05-03T06:42:25.665Z,94.70
2019-05-03T06:47:29.758Z,94.30
2019-05-03T06:52:35.136Z,93.00
2019-05-03T06:57:45.652Z,93.30
2019-05-03T07:02:57.899Z,94.20
2019-05-03T07:08:21.073Z,94.30
2019-05-03T07:13:25.459Z,95.10
2019-05-03T07:18:29.258Z,94.30
2019-05-03T07:23:34.924Z,94.30
2019-05-03T07:28:46.984Z,93.00
2019-05-03T07:33:44.639Z,94.20
2019-05-03T07:38:48.782Z,93.90
2019-05-03T07:43:52.515Z,93.20
2019-05-03T07:48:56.333Z,92.90
2019-05-03T07:54:00.047Z,91.10
2019-05-03T07:59:06.850Z,89.70
2019-05-03T08:04:10.637Z,91.10
2019-05-03T08:09:15.351Z,87.20
2019-05-03T08:14:19.349Z,88.90
2019-05-03T08:19:24.464Z,89.40
2019-05-03T08:24:28.565Z,88.50
2019-05-03T08:29:32.295Z,80.50
2019-05-03T08:34:58.034Z,87.10
2019-05-03T08:40:02.010Z,87.70
2019-05-03T08:45:08.016Z,87.40
2019-05-03T08:50:15.103Z,83.80
2019-05-03T08:55:17.428Z,82.70
2019-05-03T09:00:24.915Z,79.10
2019-05-03T09:05:28.830Z,82.60
2019-05-03T09:10:41.553Z,86.50
2019-05-03T09:15:46.005Z,87.00
2019-05-03T09:20:50.149Z,87.70
2019-05-03T09:25:54.782Z,73.20
2019-05-03T09:30:58.577Z,82.40
2019-05-03T09:36:02.796Z,89.00
2019-05-03T09:41:06.673Z,87.60
2019-05-03T09:46:10.418Z,78.90
2019-05-03T09:51:14.888Z,84.10
2019-05-03T09:56:21.299Z,84.90
2019-05-03T10:01:25.595Z,77.80
2019-05-03T10:06:29.377Z,62.10
2019-05-03T10:11:35.142Z,62.20
2019-05-03T10:16:44.900Z,72.60
2019-05-03T10:21:49.003Z,69.70
2019-05-03T10:26:52.690Z,70.90
2019-05-03T10:32:04.170Z,72.20
2019-05-03T10:37:09.844Z,72.40
2019-05-03T10:42:13.717Z,65.50
2019-05-03T10:47:17.841Z,57.50
2019-05-03T10:52:25.751Z,65.20
2019-05-03T10:57:31.106Z,65.10
2019-05-03T11:03:06.386Z,64.30
2019-05-03T11:08:10.331Z,67.80
2019-05-03T11:18:20.165Z,63.10
2019-05-03T11:28:29.182Z,63.50
2019-05-03T11:33:41.200Z,66.10
2019-05-03T11:38:46.910Z,66.70
2019-05-03T11:43:51.007Z,57.50
2019-05-03T11:48:55.005Z,58.10
2019-05-03T11:53:58.752Z,61.90
2019-05-03T11:59:02.795Z,52.50
2019-05-03T12:04:06.738Z,53.10
2019-05-03T12:09:10.542Z,52.80
2019-05-03T12:14:15.514Z,56.00
2019-05-03T12:24:26.585Z,61.00
2019-05-03T12:29:29.931Z,61.00
2019-05-03T12:34:35.133Z,51.30
2019-05-03T12:39:39.526Z,48.60
2019-05-03T12:44:43.425Z,56.00
2019-05-03T12:49:47.207Z,66.20
2019-05-03T12:54:51.570Z,44.60
2019-05-03T13:00:20.677Z,48.70
2019-05-03T13:05:24.882Z,45.10
2019-05-03T13:10:28.799Z,46.40
2019-05-03T13:15:35.222Z,47.30
2019-05-03T13:20:39.016Z,47.90
2019-05-03T13:25:44.706Z,54.20
2019-05-03T13:30:48.368Z,53.90
2019-05-03T13:35:52.104Z,53.60
2019-05-03T13:40:56.557Z,51.20
2019-05-03T13:46:00.374Z,53.00
2019-05-03T13:51:05.250Z,53.40
2019-05-03T13:56:09.336Z,55.30
2019-05-03T14:01:14.719Z,58.30
2019-05-03T14:06:18.679Z,57.20
2019-05-03T14:11:22.646Z,57.20
2019-05-03T14:16:26.593Z,58.50
2019-05-03T14:21:41.309Z,64.50
2019-05-03T14:26:45.038Z,68.90
2019-05-03T14:31:48.790Z,74.60
2019-05-03T14:36:52.647Z,79.80
2019-05-03T14:41:56.546Z,87.90
2019-05-03T14:47:00.455Z,88.50
2019-05-03T14:52:05.542Z,91.30
2019-05-03T14:57:20.266Z,92.10
2019-05-03T15:02:47.658Z,94.00
2019-05-03T15:07:47.255Z,97.00
2019-05-03T15:12:51.002Z,97.30
2019-05-03T15:17:55.103Z,96.60
2019-05-03T15:22:58.974Z,96.90
2019-05-03T15:28:04.809Z,96.40
2019-05-03T15:33:08.446Z,96.00
2019-05-03T15:38:14.190Z,94.00
2019-05-03T15:43:28.459Z,95.80
2019-05-03T15:48:35.179Z,96.00
2019-05-03T15:53:39.571Z,95.60
2019-05-03T15:58:46.663Z,95.70
2019-05-03T16:03:49.373Z,96.30
2019-05-03T16:08:55.093Z,98.40
2019-05-03T16:13:58.638Z,97.80
2019-05-03T16:19:02.497Z,96.90
2019-05-03T16:24:06.455Z,98.60
2019-05-03T16:29:12.831Z,99.60
2019-05-03T16:34:16.654Z,99.90
2019-05-03T16:39:20.506Z,99.90
2019-05-03T16:44:25.050Z,99.60
2019-05-03T16:49:29.201Z,99.90
2019-05-03T16:54:34.917Z,99.90
2019-05-03T16:59:39.125Z,99.90
2019-05-03T17:04:48.246Z,99.90
2019-05-03T17:10:15.650Z,99.90
2019-05-03T17:15:19.749Z,99.90
2019-05-03T17:20:34.831Z,99.90
2019-05-03T17:25:39.395Z,99.90
2019-05-03T17:30:44.558Z,99.40
2019-05-03T17:35:48.474Z,99.30
2019-05-03T17:41:15.156Z,99.50
2019-05-03T17:46:19.413Z,99.30
2019-05-03T17:51:45.560Z,99.30
2019-05-03T17:57:07.065Z,98.70
2019-05-03T18:02:26.299Z,97.80
2019-05-03T18:07:49.142Z,97.40
2019-05-03T18:12:54.555Z,97.10
2019-05-03T18:17:58.679Z,96.80
2019-05-03T18:23:02.501Z,97.00
2019-05-03T18:28:06.381Z,97.10
2019-05-03T18:33:10.225Z,97.60
2019-05-03T18:38:14.794Z,97.20
2019-05-03T18:43:34.491Z,97.50
2019-05-03T18:48:38.023Z,97.50
2019-05-03T18:53:42.014Z,97.30
2019-05-03T18:58:46.094Z,96.90
2019-05-03T19:03:55.373Z,96.70
2019-05-03T19:09:19.955Z,96.40
2019-05-03T19:14:25.457Z,95.50
2019-05-03T19:19:35.262Z,95.40
2019-05-03T19:24:39.390Z,95.90
2019-05-03T19:29:44.786Z,96.20
2019-05-03T19:34:51.478Z,96.80
2019-05-03T19:39:55.234Z,96.80
2019-05-03T19:45:00.201Z,96.50
2019-05-03T19:50:05.101Z,96.00
2019-05-03T19:55:09.478Z,96.20
2019-05-03T20:00:15.109Z,95.50
2019-05-03T20:05:51.325Z,95.80
2019-05-03T20:11:14.863Z,96.00
2019-05-03T20:16:19.181Z,95.90
2019-05-03T20:21:25.255Z,95.80
2019-05-03T20:26:29.285Z,95.90
2019-05-03T20:31:33.018Z,95.70
2019-05-03T20:36:37.199Z,95.70
2019-05-03T20:41:40.994Z,95.90
2019-05-03T20:46:55.033Z,96.00
2019-05-03T20:51:59.394Z,95.70
2019-05-03T20:57:05.277Z,96.20
2019-05-03T21:02:09.397Z,96.20
2019-05-03T21:07:15.175Z,96.30
2019-05-03T21:12:19.021Z,96.20
2019-05-03T21:18:00.081Z,96.30
2019-05-03T21:23:05.575Z,96.40
2019-05-03T21:28:09.778Z,96.30
2019-05-03T21:33:15.751Z,96.40
2019-05-03T21:38:20.217Z,96.40
2019-05-03T21:43:25.693Z,96.50
2019-05-03T21:48:49.057Z,96.70
2019-05-03T21:53:52.841Z,96.80
2019-05-03T21:58:56.523Z,96.70
2019-05-03T22:04:01.086Z,96.40
2019-05-03T22:09:06.183Z,96.60
2019-05-03T22:14:15.426Z,96.60
2019-05-03T22:19:19.628Z,96.70
2019-05-03T22:24:42.127Z,97.00
2019-05-03T22:29:46.251Z,97.20
2019-05-03T22:34:50.018Z,97.40
2019-05-03T22:39:55.030Z,97.90
2019-05-03T22:44:59.114Z,98.30
2019-05-03T22:50:05.274Z,98.60
2019-05-03T22:55:09.053Z,98.20
2019-05-03T23:00:14.622Z,98.10
2019-05-03T23:05:18.783Z,98.00
2019-05-03T23:10:22.705Z,98.20
2019-05-03T23:15:26.374Z,98.60
2019-05-03T23:20:49.165Z,99.60
2019-05-03T23:25:52.858Z,99.90
2019-05-03T23:30:56.901Z,99.90
2019-05-03T23:36:00.674Z,99.60
2019-05-03T23:41:04.902Z,99.90
2019-05-03T23:46:09.409Z,99.90
2019-05-03T23:51:32.609Z,99.80
2019-05-03T23:56:36.630Z,99.90
